Time;durP1;ratioP1;P1;durP2;ratioP2;P2;SDS_P1;SDS_P2;PMS_P1;PMS_P2;Temp;Humidity;BMP_temperature;BMP_pressure;BME280_temperature;BME280_humidity;BME280_pressure;Samples;Min_cycle;Max_cycle;Signal;HPM_P1;HPM_P2
2022/01/13 00:02:19;;;;;;;68.17;24.20;;;5.70;99.90;;;;;;5044041;28;20202;-38
2022/01/13 00:04:46;;;;;;;60.70;23.50;;;5.70;99.90;;;;;;5044678;28;20072;-38
2022/01/13 00:07:12;;;;;;;59.27;23.60;;;5.70;99.90;;;;;;5028548;28;20253;-37
2022/01/13 00:09:38;;;;;;;64.23;23.10;;;5.70;99.90;;;;;;5059652;28;20061;-38
2022/01/13 00:12:07;;;;;;;69.07;23.60;;;5.70;99.90;;;;;;5044074;28;20040;-38
2022/01/13 00:22:03;;;;;;;57.80;21.57;;;5.50;99.90;;;;;;5048155;28;20040;-37
2022/01/13 00:24:29;;;;;;;54.08;21.55;;;5.50;99.90;;;;;;5067926;28;20079;-38
2022/01/13 00:26:56;;;;;;;54.67;19.40;;;5.50;99.90;;;;;;5051115;28;20049;-38
2022/01/13 00:29:28;;;;;;;53.03;21.47;;;5.50;99.90;;;;;;5065713;28;20229;-38
2022/01/13 00:31:54;;;;;;;52.07;20.47;;;5.50;99.90;;;;;;5068587;28;20032;-38
2022/01/13 00:34:19;;;;;;;50.77;20.93;;;5.50;99.90;;;;;;5032231;28;20120;-38
2022/01/13 00:36:45;;;;;;;51.67;20.27;;;5.40;99.90;;;;;;5052606;28;20070;-38
2022/01/13 00:39:12;;;;;;;61.43;20.23;;;5.40;99.90;;;;;;5049284;28;20055;-37
2022/01/13 00:41:38;;;;;;;58.80;21.07;;;5.40;99.90;;;;;;5068139;28;20041;-38
2022/01/13 00:44:06;;;;;;;59.40;20.70;;;5.40;99.90;;;;;;5066863;28;20411;-38
2022/01/13 00:46:41;;;;;;;60.33;21.23;;;5.40;99.90;;;;;;5053857;28;20560;-37
2022/01/13 00:49:08;;;;;;;63.53;19.93;;;5.30;99.90;;;;;;5065759;28;20128;-38
2022/01/13 00:51:33;;;;;;;48.97;20.00;;;5.40;99.90;;;;;;5067964;28;20083;-38
2022/01/13 00:54:04;;;;;;;64.30;20.97;;;5.40;99.90;;;;;;5067364;28;20075;-38
2022/01/13 00:56:30;;;;;;;58.88;21.90;;;5.30;99.90;;;;;;5055330;28;20041;-37
2022/01/13 00:58:56;;;;;;;62.07;20.87;;;5.30;99.90;;;;;;5065219;28;20507;-37
2022/01/13 01:01:22;;;;;;;56.97;20.73;;;5.40;99.90;;;;;;5067322;28;20041;-37
2022/01/13 01:03:47;;;;;;;57.93;22.20;;;5.30;99.90;;;;;;5067221;28;20037;-37
2022/01/13 01:06:13;;;;;;;58.20;21.20;;;5.30;99.90;;;;;;5040161;28;20507;-37
2022/01/13 01:08:40;;;;;;;55.93;21.47;;;5.30;99.90;;;;;;5042485;28;20102;-38
2022/01/13 01:11:06;;;;;;;68.63;23.37;;;5.30;99.90;;;;;;5067730;28;20415;-37
2022/01/13 01:13:34;;;;;;;71.70;22.80;;;5.30;99.90;;;;;;5066662;28;20044;-38
2022/01/13 01:16:06;;;;;;;71.03;23.20;;;5.40;99.90;;;;;;5067425;28;20045;-37
2022/01/13 01:18:40;;;;;;;57.20;21.50;;;5.40;99.90;;;;;;5056761;28;20538;-37
2022/01/13 01:29:13;;;;;;;75.50;23.60;;;5.40;99.90;;;;;;5063020;28;20396;-37
2022/01/13 01:31:45;;;;;;;63.87;21.83;;;5.40;99.90;;;;;;5067945;28;20109;-38
2022/01/13 01:36:56;;;;;;;85.57;22.57;;;5.40;99.90;;;;;;5050429;28;20056;-37
2022/01/13 01:39:23;;;;;;;75.60;24.20;;;5.40;99.90;;;;;;5067140;28;20048;-37
2022/01/13 01:41:52;;;;;;;72.37;23.27;;;5.40;99.90;;;;;;5066999;28;20084;-38
2022/01/13 01:44:29;;;;;;;82.00;24.07;;;5.40;99.90;;;;;;5066118;28;20045;-39
2022/01/13 01:46:55;;;;;;;90.53;25.63;;;5.50;99.90;;;;;;5051389;28;20080;-37
2022/01/13 01:49:24;;;;;;;76.30;24.53;;;5.50;99.90;;;;;;5064484;28;20465;-37
2022/01/13 01:51:56;;;;;;;72.47;25.53;;;5.50;99.90;;;;;;5067350;28;20044;-38
2022/01/13 01:54:23;;;;;;;78.30;25.20;;;5.50;99.90;;;;;;5065795;28;20090;-38
2022/01/13 01:56:49;;;;;;;74.30;24.60;;;5.50;99.90;;;;;;5050793;28;20157;-38
2022/01/13 01:59:19;;;;;;;78.93;25.60;;;5.50;99.90;;;;;;5065733;28;20542;-38
2022/01/13 02:01:46;;;;;;;74.70;24.57;;;5.50;99.90;;;;;;5066472;28;20047;-38
2022/01/13 02:04:12;;;;;;;78.57;24.93;;;5.50;99.90;;;;;;5066046;28;20432;-37
2022/01/13 02:06:39;;;;;;;70.13;24.90;;;5.50;99.90;;;;;;5052230;28;20450;-38
2022/01/13 02:09:08;;;;;;;84.47;26.73;;;5.50;99.90;;;;;;5064133;28;20119;-39
2022/01/13 02:11:43;;;;;;;78.60;25.80;;;5.50;99.90;;;;;;5066051;28;20055;-38
2022/01/13 02:14:31;;;;;;;77.77;25.97;;;5.50;99.90;;;;;;5047812;28;20407;-37
2022/01/13 02:17:05;;;;;;;73.53;24.17;;;5.50;99.90;;;;;;5051716;28;20048;-37
2022/01/13 02:19:32;;;;;;;78.03;24.60;;;5.50;99.90;;;;;;5049005;28;20068;-37
2022/01/13 02:21:59;;;;;;;68.67;25.00;;;5.50;99.90;;;;;;5045874;28;20053;-37
2022/01/13 02:24:25;;;;;;;73.83;25.97;;;5.50;99.90;;;;;;5061397;28;20044;-38
2022/01/13 02:26:51;;;;;;;78.10;27.07;;;5.50;99.90;;;;;;5049965;28;20063;-38
2022/01/13 02:29:17;;;;;;;76.20;25.80;;;5.50;99.90;;;;;;5065234;28;20044;-37
2022/01/13 02:31:43;;;;;;;83.03;26.97;;;5.60;99.90;;;;;;5066209;28;20036;-37
2022/01/13 02:34:08;;;;;;;72.70;26.33;;;5.50;99.90;;;;;;5065036;28;20040;-37
2022/01/13 02:36:37;;;;;;;70.83;26.03;;;5.50;99.90;;;;;;5016983;28;20048;-39
2022/01/13 02:39:04;;;;;;;84.20;27.13;;;5.50;99.90;;;;;;5064126;28;20496;-37
2022/01/13 02:41:30;;;;;;;64.13;25.63;;;5.40;99.90;;;;;;5065106;28;20051;-38
2022/01/13 02:44:00;;;;;;;67.03;26.00;;;5.40;99.90;;;;;;5065362;28;20040;-38
2022/01/13 02:49:08;;;;;;;77.80;25.60;;;5.40;99.90;;;;;;5063151;28;20048;-38
2022/01/13 02:51:35;;;;;;;53.88;21.08;;;5.30;99.90;;;;;;5065765;28;20094;-38
2022/01/13 02:54:01;;;;;;;76.50;26.83;;;5.40;99.90;;;;;;5046033;28;20431;-37
2022/01/13 02:56:27;;;;;;;71.30;25.97;;;5.30;99.90;;;;;;5031485;28;20516;-37
2022/01/13 02:58:53;;;;;;;63.60;25.10;;;5.30;99.90;;;;;;5040188;28;20138;-37
2022/01/13 03:01:19;;;;;;;71.37;25.03;;;5.30;99.90;;;;;;5045462;28;20036;-37
2022/01/13 03:03:45;;;;;;;68.40;24.07;;;5.30;99.90;;;;;;5045035;28;20051;-38
2022/01/13 03:06:16;;;;;;;64.83;24.80;;;5.30;99.90;;;;;;5038071;28;20049;-38
2022/01/13 03:08:45;;;;;;;66.93;24.13;;;5.30;99.90;;;;;;5039900;28;20072;-37
2022/01/13 03:11:12;;;;;;;70.67;24.33;;;5.30;99.90;;;;;;5045297;28;20040;-38
2022/01/13 03:13:38;;;;;;;74.73;25.23;;;5.30;99.90;;;;;;5044529;28;20049;-38
2022/01/13 05:04:50;;;;;;;93.97;28.03;;;5.30;99.90;;;;;;6192311;22;1579165;-92
2022/01/13 05:07:16;;;;;;;106.13;29.53;;;5.30;99.90;;;;;;6114698;23;20084;-92
2022/01/13 05:09:42;;;;;;;96.87;29.63;;;5.40;99.90;;;;;;6114254;23;20022;-92
2022/01/13 05:12:08;;;;;;;111.13;31.47;;;5.40;99.90;;;;;;6091002;23;20060;-92
2022/01/13 05:14:34;;;;;;;91.87;27.87;;;5.40;99.90;;;;;;6114643;23;20017;-92
2022/01/13 05:17:08;;;;;;;106.90;29.47;;;5.40;99.90;;;;;;6115695;23;20435;-92
2022/01/13 05:23:52;;;;;;;96.83;29.07;;;5.40;99.90;;;;;;6097494;23;20018;-92
2022/01/13 05:30:01;;;;;;;94.63;28.20;;;5.40;99.90;;;;;;6097186;23;20093;-93
2022/01/13 05:36:23;;;;;;;97.60;30.63;;;5.40;99.90;;;;;;6097195;23;20058;-92
2022/01/13 05:42:44;;;;;;;94.43;29.77;;;5.50;99.90;;;;;;6097379;23;20013;-93
2022/01/13 05:49:19;;;;;;;108.03;32.43;;;5.50;99.90;;;;;;6097223;23;20025;-94
2022/01/13 05:55:25;;;;;;;115.70;32.60;;;5.50;99.90;;;;;;6096093;23;20022;-94
2022/01/13 05:57:51;;;;;;;117.80;32.67;;;5.70;99.90;;;;;;6090933;23;20017;-93
2022/01/13 06:00:19;;;;;;;109.37;32.97;;;5.60;99.90;;;;;;6107050;23;20028;-95
2022/01/13 06:02:46;;;;;;;120.00;35.17;;;5.60;99.90;;;;;;6107991;23;20021;-94
2022/01/13 09:55:58;;;;;;;88.33;36.00;;;6.40;99.90;;;;;;6182047;22;20048;-95
2022/01/13 09:58:24;;;;;;;84.67;36.23;;;6.50;99.90;;;;;;6087557;23;20028;-94
2022/01/13 11:14:41;;;;;;;77.80;39.73;;;6.60;99.90;;;;;;6134783;23;20032;-95
